Map

Track Data

SID SEASON NUMBER BASIN SUBBASIN NAME ISO_TIME NATURE LAT LON WMO_WIND WMO_PRES WMO_AGENCY TRACK_TYPE DIST2LAND LANDFALL IFLAG USA_AGENCY USA_ATCF_ID USA_LAT USA_LON USA_RECORD USA_STATUS USA_WIND USA_PRES USA_SSHS USA_R34_NE USA_R34_SE USA_R34_SW USA_R34_NW USA_R50_NE USA_R50_SE USA_R50_SW USA_R50_NW USA_R64_NE USA_R64_SE USA_R64_SW USA_R64_NW USA_POCI USA_ROCI USA_RMW USA_EYE TOKYO_LAT TOKYO_LON TOKYO_GRADE TOKYO_WIND TOKYO_PRES TOKYO_R50_DIR TOKYO_R50_LONG TOKYO_R50_SHORT TOKYO_R30_DIR TOKYO_R30_LONG TOKYO_R30_SHORT TOKYO_LAND CMA_LAT CMA_LON CMA_CAT CMA_WIND CMA_PRES HKO_LAT HKO_LON HKO_CAT HKO_WIND HKO_PRES NEWDELHI_LAT NEWDELHI_LON NEWDELHI_GRADE NEWDELHI_WIND NEWDELHI_PRES NEWDELHI_CI NEWDELHI_DP NEWDELHI_POCI REUNION_LAT REUNION_LON REUNION_TYPE REUNION_WIND REUNION_PRES REUNION_TNUM REUNION_CI REUNION_RMW REUNION_R34_NE REUNION_R34_SE REUNION_R34_SW REUNION_R34_NW REUNION_R50_NE REUNION_R50_SE REUNION_R50_SW REUNION_R50_NW REUNION_R64_NE REUNION_R64_SE REUNION_R64_SW REUNION_R64_NW BOM_LAT BOM_LON BOM_TYPE BOM_WIND BOM_PRES BOM_TNUM BOM_CI BOM_RMW BOM_R34_NE BOM_R34_SE BOM_R34_SW BOM_R34_NW BOM_R50_NE BOM_R50_SE BOM_R50_SW BOM_R50_NW BOM_R64_NE BOM_R64_SE BOM_R64_SW BOM_R64_NW BOM_ROCI BOM_POCI BOM_EYE BOM_POS_METHOD BOM_PRES_METHOD NADI_LAT NADI_LON NADI_CAT NADI_WIND NADI_PRES WELLINGTON_LAT WELLINGTON_LON WELLINGTON_WIND WELLINGTON_PRES DS824_LAT DS824_LON DS824_STAGE DS824_WIND DS824_PRES TD9636_LAT TD9636_LON TD9636_STAGE TD9636_WIND TD9636_PRES TD9635_LAT TD9635_LON TD9635_WIND TD9635_PRES TD9635_ROCI NEUMANN_LAT NEUMANN_LON NEUMANN_CLASS NEUMANN_WIND NEUMANN_PRES MLC_LAT MLC_LON MLC_CLASS MLC_WIND MLC_PRES USA_GUST BOM_GUST BOM_GUST_PER REUNION_GUST REUNION_GUST_PER USA_SEAHGT USA_SEARAD_NE USA_SEARAD_SE USA_SEARAD_SW USA_SEARAD_NW STORM_SPEED STORM_DIR
1980296N05165 1980 91 WP MM BETTY 1980-10-22 00:00:00 NR 4.90000 164.900 main 1558 1551 __________O___ -1 4.90000 164.900 0 4 262
1980296N05165 1980 91 WP MM BETTY 1980-10-22 03:00:00 NR 4.87344 164.709 main 1551 1531 __________P___ -1 4.87344 164.709 0 4 262
1980296N05165 1980 91 WP MM BETTY 1980-10-22 06:00:00 NR 4.84749 164.505 main 1531 1522 __________P___ -1 4.84749 164.505 0 4 263
1980296N05165 1980 91 WP MM BETTY 1980-10-22 09:00:00 NR 4.82280 164.273 main 1522 1509 __________P___ -1 4.82280 164.273 0 5 265
1980296N05165 1980 91 WP MM BETTY 1980-10-22 12:00:00 NR 4.80000 164.000 main 1509 1496 __________O___ -1 4.80000 164.000 0 6 266
1980296N05165 1980 91 WP MM BETTY 1980-10-22 15:00:00 NR 4.78063 163.676 main 1496 1479 __________P___ -1 4.78063 163.676 0 7 268
1980296N05165 1980 91 WP MM BETTY 1980-10-22 18:00:00 NR 4.76999 163.310 main 1479 1452 __________P___ -1 4.76999 163.310 0 8 270
1980296N05165 1980 91 WP MM BETTY 1980-10-22 21:00:00 NR 4.77435 162.914 main 1452 1426 __________P___ -1 4.77435 162.914 0 8 272
1980296N05165 1980 91 WP MM BETTY 1980-10-23 00:00:00 NR 4.80000 162.500 main 1426 1401 __________O___ -1 4.80000 162.500 0 9 276
1980296N05165 1980 91 WP MM BETTY 1980-10-23 03:00:00 NR 4.86164 162.061 main 1410 1380 __________P___ -1 4.86164 162.061 0 9 279
1980296N05165 1980 91 WP MM BETTY 1980-10-23 06:00:00 NR 4.94262 161.613 main 1380 1366 __________P___ -1 4.94262 161.613 0 9 281
1980296N05165 1980 91 WP MM BETTY 1980-10-23 09:00:00 NR 5.02728 161.183 main 1366 1344 __________P___ -1 5.02728 161.183 0 8 281
1980296N05165 1980 91 WP MM BETTY 1980-10-23 12:00:00 NR 5.10000 160.800 main 1344 1322 __________O___ -1 5.10000 160.800 0 7 278
1980296N05165 1980 91 WP MM BETTY 1980-10-23 15:00:00 NR 5.12286 160.532 main 1322 1308 __________P___ -1 5.12286 160.532 0 5 274
1980296N05165 1980 91 WP MM BETTY 1980-10-23 18:00:00 NR 5.13463 160.307 main 1308 1294 __________P___ -1 5.13463 160.307 0 5 274
1980296N05165 1980 91 WP MM BETTY 1980-10-23 21:00:00 NR 5.15410 160.079 main 1303 1282 __________P___ -1 5.15410 160.079 0 5 277
1980296N05165 1980 91 WP MM BETTY 1980-10-24 00:00:00 NR 5.20000 159.800 main 1282 1265 __________O___ -1 5.20000 159.800 0 7 283
1980296N05165 1980 91 WP MM BETTY 1980-10-24 03:00:00 NR 5.32495 159.363 main 1265 1247 __________P___ -1 5.32495 159.363 0 10 287
1980296N05165 1980 91 WP MM BETTY 1980-10-24 06:00:00 NR 5.47289 158.878 main 1249 1225 __________P___ -1 5.47289 158.878 0 10 287
1980296N05165 1980 91 WP MM BETTY 1980-10-24 09:00:00 NR 5.60934 158.404 main 1225 1209 __________P___ -1 5.60934 158.404 0 9 285
1980296N05165 1980 91 WP MM BETTY 1980-10-24 12:00:00 NR 5.70000 158.000 main 1209 1197 __________O___ -1 5.70000 158.000 0 6 281
1980296N05165 1980 91 WP MM BETTY 1980-10-24 15:00:00 NR 5.73253 157.770 main 1197 1185 __________P___ -1 5.73253 157.770 0 4 272
1980296N05165 1980 91 WP MM BETTY 1980-10-24 18:00:00 NR 5.71214 157.613 main 1185 1169 __________P___ -1 5.71214 157.613 0 3 252
1980296N05165 1980 91 WP MM BETTY 1980-10-24 21:00:00 NR 5.63569 157.474 main 1169 1148 __________P___ -1 5.63569 157.474 0 4 236
1980296N05165 1980 91 WP MM BETTY 1980-10-25 00:00:00 NR 5.50000 157.300 main 1148 1112 __________O___ -1 5.50000 157.300 0 6 233
1980296N05165 1980 91 WP MM BETTY 1980-10-25 03:00:00 NR 5.28324 156.998 main 1112 1066 __________P___ -1 5.28324 156.998 0 8 233
1980296N05165 1980 91 WP MM BETTY 1980-10-25 06:00:00 NR 5.01515 156.657 main 1066 1024 __________P___ -1 5.01515 156.657 0 9 231
1980296N05165 1980 91 WP MM BETTY 1980-10-25 09:00:00 NR 4.73947 156.313 main 1014 978 __________P___ -1 4.73947 156.313 0 8 232
1980296N05165 1980 91 WP MM BETTY 1980-10-25 12:00:00 NR 4.50000 156.000 main 978 947 __________O___ -1 4.50000 156.000 0 7 232
1980296N05165 1980 91 WP MM BETTY 1980-10-25 15:00:00 NR 4.33640 155.801 main 947 926 __________P___ -1 4.33640 155.801 0 5 233
1980296N05165 1980 91 WP MM BETTY 1980-10-25 18:00:00 NR 4.21727 155.630 main 926 911 __________P___ -1 4.21727 155.630 0 4 241
1980296N05165 1980 91 WP MM BETTY 1980-10-25 21:00:00 NR 4.13952 155.444 main 906 895 __________P___ -1 4.13952 155.444 0 4 255
1980296N05165 1980 91 WP MM BETTY 1980-10-26 00:00:00 NR 4.10000 155.200 main 895 876 __________O___ -1 4.10000 155.200 0 6 263
1980296N05165 1980 91 WP MM BETTY 1980-10-26 03:00:00 NR 4.06484 154.815 main 876 855 __________P___ -1 4.06484 154.815 0 8 268
1980296N05165 1980 91 WP MM BETTY 1980-10-26 06:00:00 NR 4.06771 154.372 main 855 831 __________P___ -1 4.06771 154.372 0 9 273
1980296N05165 1980 91 WP MM BETTY 1980-10-26 09:00:00 NR 4.11171 153.918 main 831 823 __________P___ -1 4.11171 153.918 0 9 279
1980296N05165 1980 91 WP MM BETTY 1980-10-26 12:00:00 NR 4.20000 153.500 main 825 821 __________O___ -1 4.20000 153.500 0 8 290
1980296N05165 1980 91 WP MM BETTY 1980-10-26 15:00:00 NR 4.39680 153.154 main 835 832 __________P___ -1 4.39680 153.154 0 8 303
1980296N05165 1980 91 WP MM BETTY 1980-10-26 18:00:00 NR 4.62492 152.853 main 847 844 __________P___ -1 4.62492 152.853 0 7 307
1980296N05165 1980 91 WP MM BETTY 1980-10-26 21:00:00 NR 4.81559 152.600 main 861 861 __________P___ -1 4.81559 152.600 0 5 301
1980296N05165 1980 91 WP MM BETTY 1980-10-27 00:00:00 NR 4.90000 152.400 main 867 841 __________O___ -1 4.90000 152.400 0 4 253
1980296N05165 1980 91 WP MM BETTY 1980-10-27 03:00:00 NR 4.69244 152.197 main 841 806 __________P___ -1 4.69244 152.197 0 6 214
1980296N05165 1980 91 WP MM BETTY 1980-10-27 06:00:00 NR 4.38991 152.050 main 805 771 __________P___ -1 4.38991 152.050 0 6 201
1980296N05165 1980 91 WP MM BETTY 1980-10-27 09:00:00 NR 4.11744 151.978 main 771 760 __________P___ -1 4.11744 151.978 0 4 188
1980296N05165 1980 91 WP MM BETTY 1980-10-27 12:00:00 NR 4.00000 152.000 main 760 760 __________O___ -1 4.00000 152.000 0 2 56
1980296N05165 1980 91 WP MM BETTY 1980-10-27 15:00:00 NR 4.22285 152.135 main 784 784 __________P___ -1 4.22285 152.135 0 7 31
1980296N05165 1980 91 WP MM BETTY 1980-10-27 18:00:00 NR 4.60759 152.360 main 834 834 __________P___ -1 4.60759 152.360 0 10 30
1980296N05165 1980 91 WP MM BETTY 1980-10-27 21:00:00 NR 5.06353 152.629 main 894 894 __________P___ -1 5.06353 152.629 0 16 41
1980296N05165 1980 91 WP MM BETTY 1980-10-28 00:00:00 TS 5.80000 153.383 1004 tokyo main 992 992 _OO_______O___ -1 6.80000 154.700 2 1004 0 0 0 6.00000 154.000 0 19 1004 5.50000 152.900 0 15 38
1980296N05165 1980 91 WP MM BETTY 1980-10-28 03:00:00 TS 6.26629 153.576 main 1052 1052 _PP_______P___ -1 7.31514 154.220 2 1003 0 0 6.20250 153.813 0 19 1002 5.77376 153.136 0 9 12
1980296N05165 1980 91 WP MM BETTY 1980-10-28 06:00:00 TS 6.63601 153.564 1002 tokyo main 1084 1084 _OO_______P___ -1 7.70000 153.800 2 1002 0 0 0 6.40000 153.600 0 19 1001 6.01502 153.360 0 6 350
1980296N05165 1980 91 WP MM BETTY 1980-10-28 09:00:00 TS 6.89874 153.465 main 1113 1111 _PP_______P___ -1 7.85495 153.490 2 1002 0 0 6.59251 153.350 0 21 1001 6.24877 153.554 0 6 310
1980296N05165 1980 91 WP MM BETTY 1980-10-28 12:00:00 TS 7.04286 153.071 1002 tokyo main 1114 1114 OOO______OO___ jtwc_wp WP251980 7.10000 151.300 25 -1 7.80000 153.300 2 1002 0 0 0 6.80000 153.100 1 23 1001 7.10000 151.300 TC 25 6.50000 153.700 1 25 6 294
1980296N05165 1980 91 WP MM BETTY 1980-10-28 15:00:00 TS 7.12588 152.946 main 1120 1120 PPP______PP___ WP251980 7.18520 152.012 25 -1 7.51989 153.138 2 1001 0 0 7.02751 152.840 1 26 1000 7.18520 152.012 TC 25 6.77092 153.796 1 26 2 358
1980296N05165 1980 91 WP MM BETTY 1980-10-28 18:00:00 TS 7.24833 153.064 1000 tokyo main 1135 1135 OOO______OP___ jtwc_wp WP251980 7.30000 152.700 25 -1 7.30000 153.200 2 1000 0 0 0 7.30000 152.700 1 29 1000 7.30000 152.700 TC 25 7.06749 153.840 1 27 6 51
1980296N05165 1980 91 WP MM BETTY 1980-10-28 21:00:00 TS 7.48410 153.388 main 1176 1176 PPP______PP___ WP251980 7.48250 153.325 27 -1 7.43031 153.707 2 999 0 0 7.61990 152.745 1 33 1000 7.48250 153.325 TC 27 7.40531 153.839 1 28 9 48
1980296N05165 1980 91 WP MM BETTY 1980-10-29 00:00:00 TS 7.84000 153.720 35 998 tokyo main 1217 1217 OOO______OO___ jtwc_wp WP251980 7.80000 153.800 30 -1 7.80000 154.200 3 35 998 0 9 100 100 0 8.00000 153.000 2 38 1000 7.80000 153.800 TC 30 7.80000 153.800 1 30 10 35
1980296N05165 1980 91 WP MM BETTY 1980-10-29 03:00:00 TS 8.33380 153.988 main 1279 1279 PPP______PP___ WP251980 8.31235 154.142 30 -1 8.31233 154.242 3 35 998 0 9 100 100 8.42029 153.582 2 38 1000 8.31235 154.142 TC 30 8.31170 153.833 1 31 11 17
1980296N05165 1980 91 WP MM BETTY 1980-10-29 06:00:00 TS 8.89459 154.046 35 998 tokyo main 1344 1344 OOOO_____OP___ jtwc_wp WP251980 8.90000 154.200 30 -1 8.90000 154.000 3 35 998 0 9 100 100 0 8.90000 154.000 2 38 1000 8.90000 154.100 TD 30 1000 8.90000 154.200 TC 30 8.87160 153.817 1 32 11 349
1980296N05165 1980 91 WP MM BETTY 1980-10-29 09:00:00 TS 9.42488 153.778 main 1393 1393 PPPP_____PP___ WP251980 9.44492 153.928 32 -1 9.44508 153.603 3 37 997 0 9 112 100 9.47241 153.765 2 38 997 9.21757 153.723 TD 32 998 9.44492 153.928 TC 32 9.42072 153.692 1 33 12 323
1980296N05165 1980 91 WP MM BETTY 1980-10-29 12:00:00 TS 9.86522 153.300 40 996 tokyo main 1436 1434 OOOO_____OO___ jtwc_wp WP251980 9.90000 153.400 35 0 9.90000 153.100 3 40 996 0 1 125 100 0 10.0000 153.200 2 38 995 9.50000 153.300 TS 35 996 9.90000 153.400 TC 35 9.90000 153.400 2 35 12 306
1980296N05165 1980 91 WP MM BETTY 1980-10-29 15:00:00 TS 10.1469 152.774 main 1449 1449 PPPP_____PP___ WP251980 10.1875 152.802 40 0 10.1947 152.702 3 45 994 0 1 137 100 10.3599 152.645 2 43 992 9.73489 152.795 TS 40 995 10.1875 152.802 TC 40 10.2172 152.896 2 38 13 294
1980296N05165 1980 91 WP MM BETTY 1980-10-29 18:00:00 TS 10.3767 152.137 50 992 tokyo main 1473 1472 OOOO_____OP___ jtwc_wp WP251980 10.4000 152.100 45 0 10.4000 152.200 4 50 992 0 1 150 100 0 10.6000 152.000 3 48 990 10.0000 152.200 TS 45 994 10.4000 152.100 TC 45 10.4603 152.224 2 42 14 289
1980296N05165 1980 91 WP MM BETTY 1980-10-29 21:00:00 TS 10.6030 151.417 main 1490 1487 PPPP_____PP___ WP251980 10.6274 151.365 47 0 10.5701 151.460 4 50 992 0 1 150 100 10.7423 151.330 3 48 990 10.3773 151.545 TS 47 993 10.6274 151.365 TC 47 10.6732 151.440 2 46 16 288
1980296N05165 1980 91 WP MM BETTY 1980-10-30 00:00:00 TS 10.8667 150.633 50 992 tokyo main 1499 1496 OOOO_____OO___ jtwc_wp WP251980 10.9000 150.600 50 0 10.8000 150.600 4 50 992 0 1 150 100 0 10.9000 150.600 3 48 990 10.8000 150.800 STS 50 993 10.9000 150.600 TC 50 10.9000 150.600 2 50 17 293
1980296N05165 1980 91 WP MM BETTY 1980-10-30 03:00:00 TS 11.2485 149.856 main 1515 1515 PPPP_____PP___ WP251980 11.2996 149.880 52 0 11.2348 149.765 4 55 991 0 1 150 100 11.2275 149.808 3 53 987 11.2149 149.980 STS 52 991 11.2996 149.880 TC 52 11.2149 149.821 2 52 18 296
1980296N05165 1980 91 WP MM BETTY 1980-10-30 06:00:00 TS 11.6415 149.033 60 990 tokyo main 1545 1545 OOOO_____OP___ jtwc_wp WP251980 11.7000 149.100 55 0 11.7000 148.900 4 60 990 9 60 60 1 150 100 0 11.6000 149.000 3 58 985 11.6000 149.100 STS 55 989 11.7000 149.100 TC 55 11.5488 148.997 2 55 18 293
1980296N05165 1980 91 WP MM BETTY 1980-10-30 09:00:00 TS 11.9403 148.164 main 1571 1571 PPPP_____PP___ WP251980 11.9573 148.194 57 0 12.0223 148.007 4 60 985 9 60 60 1 150 100 11.9070 148.272 3 58 985 11.9149 148.192 STS 55 988 11.9573 148.194 TC 57 11.8833 148.124 2 57 18 288
1980296N05165 1980 91 WP MM BETTY 1980-10-30 12:00:00 TS 12.2167 147.250 60 980 tokyo main 1602 1602 OOOO_____OO___ jtwc_wp WP251980 12.2000 147.200 60 0 12.3000 147.100 4 60 980 9 60 60 1 150 100 0 12.2000 147.500 3 58 985 12.2000 147.300 STS 55 988 12.2000 147.200 TC 60 12.2000 147.200 2 60 19 288
1980296N05165 1980 91 WP MM BETTY 1980-10-30 15:00:00 TS 12.5465 146.308 main 1636 1636 PPPP_____PP___ WP251980 12.5648 146.158 65 1 12.6147 146.200 4 60 977 9 60 60 1 150 100 12.5073 146.595 3 63 977 12.5067 146.530 STS 57 985 12.5648 146.158 TC 65 12.5204 146.210 2 63 20 289
1980296N05165 1980 91 WP MM BETTY 1980-10-30 18:00:00 TS 12.8521 145.329 60 975 tokyo main 1686 1686 OOOO_____OP___ jtwc_wp WP251980 12.9000 145.100 70 1 12.9000 145.300 4 60 975 9 60 60 1 150 100 0 12.8000 145.600 4 68 970 12.8000 145.700 STS 60 982 12.9000 145.100 TC 70 12.8127 145.174 2 67 20 285
1980296N05165 1980 91 WP MM BETTY 1980-10-30 21:00:00 TS 13.0754 144.316 main 1721 1721 PPPP_____PP___ WP251980 13.0720 144.092 72 1 13.1222 144.400 4 65 972 9 60 60 1 150 100 13.0725 144.543 4 68 970 13.0650 144.645 STS 62 978 13.0720 144.092 TC 72 13.0485 144.126 2 71 20 281
1980296N05165 1980 91 WP MM BETTY 1980-10-31 00:00:00 TS 13.2500 143.300 70 970 tokyo main 1761 1743 OOOO_____OO___ jtwc_wp WP251980 13.2000 143.100 75 1 13.3000 143.500 5 70 970 9 60 60 1 150 100 0 13.3000 143.500 4 68 970 13.3000 143.500 T 65 975 13.2000 143.100 TC 75 13.2000 143.100 4 75 20 280
1980296N05165 1980 91 WP MM BETTY 1980-10-31 03:00:00 TS 13.4111 142.318 main 1740 1713 PPPP_____PP___ WP251980 13.4074 142.078 77 1 13.4720 142.615 5 70 967 9 62 62 1 175 112 13.4714 142.622 4 72 967 13.5221 142.392 T 67 972 13.4074 142.078 TC 77 13.1865 142.123 4 77 19 278
1980296N05165 1980 91 WP MM BETTY 1980-10-31 06:00:00 TS 13.5331 141.346 70 965 tokyo main 1708 1613 OOOO_____OP___ jtwc_wp WP251980 13.6000 141.100 80 1 13.6000 141.700 5 70 965 9 65 65 1 200 125 0 13.6000 141.700 4 77 965 13.7000 141.300 T 70 970 13.6000 141.100 TC 80 13.0988 141.179 4 80 19 276
1980296N05165 1980 91 WP MM BETTY 1980-10-31 09:00:00 TS 13.6048 140.347 main 1602 1508 PPPP_____PP___ WP251980 13.7145 140.220 82 1 13.6575 140.692 5 72 962 9 70 70 1 212 127 13.7084 140.477 4 77 965 13.8224 140.205 T 72 965 13.7145 140.220 TC 82 13.0117 140.270 4 82 19 274
1980296N05165 1980 91 WP MM BETTY 1980-10-31 12:00:00 TS 13.6667 139.400 75 960 tokyo main 1508 1425 OOOO_____OO___ jtwc_wp WP251980 13.8000 139.400 85 2 13.7000 139.700 5 75 960 9 75 75 1 225 130 0 13.8000 139.300 4 77 965 13.9000 139.200 T 75 960 13.8000 139.400 TC 85 13.0000 139.400 4 85 17 276
1980296N05165 1980 91 WP MM BETTY 1980-10-31 15:00:00 TS 13.7823 138.574 main 1425 1343 PPPP_____PP___ WP251980 13.9147 138.593 87 2 13.7994 138.835 5 75 960 9 75 75 1 225 140 13.9139 138.490 4 77 965 13.9643 138.370 T 80 960 13.9147 138.593 TC 87 13.1869 138.562 4 87 16 278
1980296N05165 1980 91 WP MM BETTY 1980-10-31 18:00:00 TS 13.8922 137.793 75 960 tokyo main 1343 1259 OOOO_____OP___ jtwc_wp WP251980 14.0000 137.800 90 2 13.9000 138.000 5 75 960 9 75 75 1 225 150 0 14.0000 137.800 4 77 965 14.0000 137.600 ST 85 960 14.0000 137.800 TC 90 13.4534 137.757 4 90 16 276
1980296N05165 1980 91 WP MM BETTY 1980-10-31 21:00:00 TS 13.9487 136.974 main 1259 1176 PPPP_____PP___ WP251980 13.9997 137.000 92 2 13.9500 137.085 5 77 960 9 75 75 1 225 150 13.9998 137.007 4 82 962 13.9995 136.780 ST 85 960 13.9997 137.000 TC 92 13.7433 136.974 4 92 16 274
1980296N05165 1980 91 WP MM BETTY 1980-11-01 00:00:00 TS 14.0000 136.150 80 960 tokyo main 1176 1093 OOOO_____OO___ jtwc_wp WP251980 14.0000 136.200 95 2 14.0000 136.200 5 80 960 9 75 75 8 225 150 0 14.0000 136.200 5 87 960 14.0000 135.900 ST 85 960 14.0000 136.200 TC 95 14.0000 136.200 4 95 16 275
1980296N05165 1980 91 WP MM BETTY 1980-11-01 03:00:00 TS 14.0891 135.314 main 1082 1000 PPPP_____PP___ WP251980 14.0848 135.393 95 2 14.0771 135.420 5 80 960 9 75 75 8 225 150 14.0845 135.423 5 87 960 14.0278 134.885 ST 85 962 14.0848 135.393 TC 95 14.1757 135.369 4 93 16 277
1980296N05165 1980 91 WP MM BETTY 1980-11-01 06:00:00 TS 14.2009 134.492 80 960 tokyo main 1000 918 OOOO_____OP___ jtwc_wp WP251980 14.2000 134.600 95 2 14.2000 134.700 5 80 960 9 75 75 8 225 150 0 14.2000 134.600 5 87 960 14.1000 133.900 ST 85 965 14.2000 134.600 TC 95 14.3053 134.553 4 92 16 278
1980296N05165 1980 91 WP MM BETTY 1980-11-01 09:00:00 TS 14.3183 133.677 main 918 848 PPPP_____PP___ WP251980 14.2924 133.812 92 2 14.4072 133.993 5 80 962 9 75 75 8 250 162 14.2930 133.605 5 87 960 14.2423 133.053 ST 85 965 14.2924 133.812 TC 92 14.3822 133.785 4 91 15 279
1980296N05165 1980 91 WP MM BETTY 1980-11-01 12:00:00 TS 14.4333 132.950 80 965 tokyo main 848 790 OOOO_____OO___ jtwc_wp WP251980 14.4000 133.100 90 2 14.6000 133.300 5 80 965 9 75 75 8 275 175 0 14.4000 132.700 5 87 960 14.4000 132.400 ST 85 965 14.4000 133.100 TC 90 14.4000 133.100 4 90 13 279
1980296N05165 1980 91 WP MM BETTY 1980-11-01 15:00:00 TS 14.5276 132.365 main 790 742 PPPP_____PP___ WP251980 14.5573 132.498 92 2 14.6801 132.562 5 77 965 9 77 77 8 287 187 14.5644 132.110 5 87 957 14.5071 131.982 ST 85 965 14.5573 132.498 TC 92 14.2993 132.537 4 91 10 279
1980296N05165 1980 91 WP MM BETTY 1980-11-01 18:00:00 TS 14.5922 131.893 75 965 tokyo main 742 702 OOOO_____OP___ jtwc_wp WP251980 14.7000 132.000 95 2 14.7000 131.900 5 75 965 9 80 80 8 300 200 0 14.7000 131.700 5 87 955 14.6000 131.700 ST 85 965 14.7000 132.000 TC 95 14.1533 132.058 4 92 9 276
1980296N05165 1980 91 WP MM BETTY 1980-11-01 21:00:00 TS 14.6112 131.492 main 702 662 PPPP_____PP___ WP251980 14.7647 131.592 95 2 14.6997 131.405 5 77 962 9 80 80 8 300 200 14.7073 131.327 5 87 955 14.6999 131.407 ST 87 962 14.7647 131.592 TC 95 14.0308 131.625 4 93 8 273
1980296N05165 1980 91 WP MM BETTY 1980-11-02 00:00:00 TS 14.6333 131.117 80 960 tokyo main 662 628 OOOO_____OO___ jtwc_wp WP251980 14.8000 131.200 95 2 14.7000 131.000 5 80 960 9 80 80 8 300 200 0 14.7000 131.000 5 87 955 14.8000 131.100 ST 90 960 14.8000 131.200 TC 95 14.0000 131.200 4 95 8 279
1980296N05165 1980 91 WP MM BETTY 1980-11-02 03:00:00 TS 14.7287 130.682 main 628 595 PPPP_____PP___ WP251980 14.8500 130.707 97 3 14.7424 130.600 5 85 957 9 90 90 8 275 225 14.7924 130.665 5 92 950 14.9150 130.715 ST 90 957 14.8500 130.707 TC 97 14.2226 130.698 4 97 9 283
1980296N05165 1980 91 WP MM BETTY 1980-11-02 06:00:00 TS 14.8384 130.233 90 955 tokyo main 585 554 OOOO_____OP___ jtwc_wp WP251980 14.9000 130.200 100 3 14.8000 130.200 5 90 955 9 100 100 9 250 250 0 14.9000 130.300 5 97 945 15.0000 130.300 ST 90 955 14.9000 130.200 TC 100 14.5302 130.200 4 100 9 284
1980296N05165 1980 91 WP MM BETTY 1980-11-02 09:00:00 TS 14.9467 129.777 main 554 525 PPPP_____PP___ WP251980 14.9799 129.728 102 3 14.8726 129.735 5 90 957 9 100 100 9 250 250 14.9951 129.843 5 97 945 15.0299 129.900 ST 90 957 14.9799 129.728 TC 102 14.8227 129.726 4 102 9 280
1980296N05165 1980 91 WP MM BETTY 1980-11-02 12:00:00 TS 14.9833 129.350 90 960 tokyo main 516 484 OOOO_____OO___ jtwc_wp WP251980 15.0000 129.300 105 3 14.9000 129.300 5 90 960 9 100 100 9 250 250 0 15.0000 129.400 5 97 945 15.0000 129.500 ST 90 960 15.0000 129.300 TC 105 15.0000 129.300 4 105 8 265
1980296N05165 1980 91 WP MM BETTY 1980-11-02 15:00:00 TS 14.8792 128.994 main 484 445 PPPP_____PP___ WP251980 14.8949 128.920 105 3 14.8374 128.977 5 90 960 9 100 100 9 300 225 14.8373 129.085 5 97 945 14.9224 129.108 ST 90 957 14.8949 128.920 TC 105 14.8881 128.957 4 106 7 246
1980296N05165 1980 91 WP MM BETTY 1980-11-02 18:00:00 TS 14.6932 128.677 90 960 tokyo main 445 406 OOOO_____OP___ jtwc_wp WP251980 14.7000 128.600 105 3 14.7000 128.700 5 90 960 9 100 100 7 350 200 0 14.6000 128.800 5 97 945 14.8000 128.700 ST 90 955 14.7000 128.600 TC 105 14.6592 128.661 4 107 7 235
1980296N05165 1980 91 WP MM BETTY 1980-11-02 21:00:00 TS 14.4576 128.362 main 406 366 PPPP_____PP___ WP251980 14.4273 128.357 107 3 14.4850 128.400 5 90 957 9 100 100 7 350 200 14.3625 128.442 5 101 942 14.6426 128.227 ST 90 955 14.4273 128.357 TC 107 14.4007 128.385 4 108 7 235
1980296N05165 1980 91 WP MM BETTY 1980-11-03 00:00:00 TS 14.2667 128.050 90 955 tokyo main 366 334 OOOO_____OO___ jtwc_wp WP251980 14.2000 128.100 110 3 14.3000 128.100 5 90 955 9 100 100 7 350 200 0 14.2000 128.100 6 106 940 14.5000 127.800 ST 90 955 14.2000 128.100 TC 110 14.2000 128.100 4 110 7 249
1980296N05165 1980 91 WP MM BETTY 1980-11-03 03:00:00 TS 14.2291 127.733 main 327 311 PPPP_____PP___ WP251980 14.1476 127.708 110 3 14.2624 127.808 5 95 947 9 112 112 7 350 200 14.2123 127.865 6 106 935 14.4348 127.528 ST 92 947 14.1476 127.708 TC 110 14.1697 127.785 4 111 6 270
1980296N05165 1980 91 WP MM BETTY 1980-11-03 06:00:00 TS 14.2683 127.409 100 940 tokyo main 311 287 OOOO_____OP___ jtwc_wp WP251980 14.2000 127.300 110 3 14.3000 127.500 5 100 940 9 125 125 8 350 200 0 14.3000 127.600 6 106 930 14.4000 127.300 ST 95 940 14.2000 127.300 TC 110 14.2096 127.453 4 112 6 278
1980296N05165 1980 91 WP MM BETTY 1980-11-03 09:00:00 TS 14.3140 127.079 main 287 254 PPPP_____PP___ WP251980 14.2848 127.007 112 3 14.3424 127.173 5 100 935 9 125 125 8 350 200 14.3426 127.172 6 111 930 14.3349 127.022 ST 97 935 14.2848 127.007 TC 112 14.2946 127.094 4 113 7 280
1980296N05165 1980 91 WP MM BETTY 1980-11-03 12:00:00 TS 14.3833 126.717 100 930 tokyo main 254 215 OOOO_____OO___ jtwc_wp WP251980 14.4000 126.700 115 4 14.4000 126.800 5 100 930 9 125 125 8 350 200 0 14.4000 126.700 6 116 930 14.3000 126.700 SuperT 100 930 14.4000 126.700 TC 115 14.4000 126.700 4 115 8 281
1980296N05165 1980 91 WP MM BETTY 1980-11-03 15:00:00 TS 14.4564 126.307 main 215 175 PPPP_____PP___ WP251980 14.5000 126.280 117 4 14.4424 126.380 5 100 930 9 137 137 8 350 200 14.4998 126.308 6 116 927 14.3349 126.330 SuperT 107 927 14.5000 126.280 TC 117 14.4612 126.265 4 116 9 281
1980296N05165 1980 91 WP MM BETTY 1980-11-03 18:00:00 TS 14.5400 125.849 100 930 tokyo main 165 133 OOOO_____OP___ jtwc_wp WP251980 14.6000 125.800 120 4 14.5000 125.900 5 100 930 9 150 150 8 350 200 0 14.6000 125.900 6 116 925 14.4000 125.900 SuperT 115 925 14.6000 125.800 TC 120 14.5399 125.794 4 117 9 279
1980296N05165 1980 91 WP MM BETTY 1980-11-03 21:00:00 TS 14.6060 125.358 main 133 101 PPPP_____PP___ WP251980 14.6849 125.315 120 4 14.5700 125.357 5 100 927 9 150 150 8 350 200 14.6274 125.430 6 116 925 14.4199 125.430 SuperT 115 925 14.6849 125.315 TC 120 14.6487 125.302 4 118 10 280
1980296N05165 1980 91 WP MM BETTY 1980-11-04 00:00:00 TS 14.7167 124.833 100 925 tokyo main 95 89 OOOO_____OO___ jtwc_wp WP251980 14.8000 124.800 120 4 14.7000 124.800 5 100 925 9 150 150 8 350 200 0 14.7000 124.900 6 116 925 14.5000 124.900 SuperT 115 925 14.8000 124.800 TC 120 14.8000 124.800 4 120 11 287
1980296N05165 1980 91 WP MM BETTY 1980-11-04 03:00:00 TS 14.9162 124.280 main 100 100 PPPP_____PP___ WP251980 14.9700 124.242 122 4 14.9198 124.300 5 100 927 9 150 150 8 350 200 14.9126 124.293 6 116 925 14.6976 124.293 SuperT 115 927 14.9700 124.242 TC 122 15.0269 124.308 4 120 12 294
1980296N05165 1980 91 WP MM BETTY 1980-11-04 06:00:00 TS 15.1820 123.735 100 930 tokyo main 141 139 OOOO_____OP___ jtwc_wp WP251980 15.2000 123.700 125 4 15.2000 123.800 5 100 930 9 150 150 8 350 200 0 15.2000 123.700 6 116 925 15.0000 123.700 SuperT 115 930 15.2000 123.700 TC 125 15.2922 123.808 4 120 11 301
1980296N05165 1980 91 WP MM BETTY 1980-11-04 09:00:00 TS 15.5071 123.262 main 141 78 PPPP_____PP___ WP251980 15.5147 123.258 122 4 15.5075 123.250 5 100 930 9 150 125 8 350 200 15.5221 123.250 6 116 925 15.4221 123.250 SuperT 115 930 15.5147 123.258 TC 122 15.5613 123.305 4 120 11 304
1980296N05165 1980 91 WP MM BETTY 1980-11-04 12:00:00 TS 15.8000 122.783 100 930 tokyo main 78 24 OOOO_____OO___ jtwc_wp WP251980 15.8000 122.800 120 4 15.8000 122.700 5 100 930 8 150 100 8 350 200 0 15.8000 122.800 6 116 925 15.8000 122.800 SuperT 115 930 15.8000 122.800 TC 120 15.8000 122.800 4 120 11 293
1980296N05165 1980 91 WP MM BETTY 1980-11-04 15:00:00 TS 15.9331 122.199 main 24 0 PPPP_____PP___ WP251980 15.9227 122.192 112 3 16.0148 122.192 5 95 937 8 150 100 8 325 200 15.9152 122.192 6 106 935 15.9227 122.192 SuperT 112 940 15.9227 122.192 TC 112 15.9005 122.230 4 106 11 282
1980296N05165 1980 91 WP MM BETTY 1980-11-04 18:00:00 TS 16.0293 121.629 90 945 tokyo main 0 0 OOOO_____OP___ jtwc_wp WP251980 16.0000 121.600 105 3 16.2000 121.700 5 90 945 8 150 100 8 300 200 0 16.0000 121.600 5 97 945 16.0000 121.600 SuperT 110 950 16.0000 121.600 TC 105 15.9758 121.672 4 92 10 283
1980296N05165 1980 91 WP MM BETTY 1980-11-04 21:00:00 TS 16.1638 121.139 main 0 0 PPPP_____PP___ WP251980 16.0899 121.117 85 2 16.3702 121.147 5 77 957 8 150 75 8 275 200 16.1398 121.147 5 87 955 16.2049 121.125 SuperT 105 957 16.0899 121.117 TC 85 16.0881 121.177 4 78 9 295
1980296N05165 1980 91 WP MM BETTY 1980-11-05 00:00:00 TS 16.4000 120.783 65 970 tokyo main 0 0 OOOO_____OO___ jtwc_wp WP251980 16.3000 120.800 65 1 16.6000 120.700 5 65 970 7 150 50 8 250 200 0 16.4000 120.800 4 77 965 16.5000 120.800 SuperT 100 965 16.3000 120.800 TC 65 16.3000 120.800 4 65 8 322
1980296N05165 1980 91 WP MM BETTY 1980-11-05 03:00:00 TS 16.8149 120.600 main 0 0 PPPP_____PP___ WP251980 16.7474 120.705 57 0 16.9473 120.460 5 60 975 7 125 75 8 225 162 16.8550 120.490 4 72 972 16.8848 120.662 SuperT 85 972 16.7474 120.705 TC 57 16.7077 120.578 4 60 10 345
1980296N05165 1980 91 WP MM BETTY 1980-11-05 06:00:00 TS 17.3194 120.530 55 980 tokyo main 0 0 OOOO_____OP___ jtwc_wp WP251980 17.3000 120.700 50 0 17.4000 120.400 4 55 980 9 100 100 7 200 125 0 17.4000 120.300 4 68 980 17.3000 120.600 T 70 980 17.3000 120.700 TC 50 17.2167 120.477 4 55 10 353
1980296N05165 1980 91 WP MM BETTY 1980-11-05 09:00:00 TS 17.8150 120.468 main 0 0 PPPP_____PP___ WP251980 17.8075 120.585 47 0 17.9425 120.455 4 52 985 9 7 212 137 17.9224 120.262 4 63 984 17.6425 120.457 T 67 984 17.8075 120.585 TC 47 17.7674 120.463 4 50 10 356
1980296N05165 1980 91 WP MM BETTY 1980-11-05 12:00:00 TS 18.3000 120.450 50 990 tokyo main 10 10 OOOO_____OO___ jtwc_wp WP251980 18.3000 120.500 45 0 18.5000 120.600 4 50 990 0 6 225 150 0 18.4000 120.300 3 58 988 18.0000 120.300 T 65 989 18.3000 120.500 TC 45 18.3000 120.500 2 45 9 359
1980296N05165 1980 91 WP MM BETTY 1980-11-05 15:00:00 TS 18.7485 120.446 main 39 38 PPPP_____PP___ WP251980 18.7725 120.520 45 0 18.9950 120.750 4 50 990 0 6 200 162 18.7800 120.270 3 53 989 18.4425 120.128 T 57 988 18.7725 120.520 TC 45 18.7285 120.488 2 45 9 3
1980296N05165 1980 91 WP MM BETTY 1980-11-05 18:00:00 TS 19.1549 120.487 50 990 tokyo main 74 74 OOOO_____OP___ jtwc_wp WP251980 19.2000 120.600 45 0 19.4000 120.900 4 50 990 0 9 175 175 0 19.1000 120.300 3 48 990 18.9000 120.000 STS 50 988 19.2000 120.600 TC 45 19.1295 120.523 2 45 8 9
1980296N05165 1980 91 WP MM BETTY 1980-11-05 21:00:00 TS 19.5068 120.568 main 102 102 PPPP_____PP___ WP251980 19.5650 120.678 45 0 19.6800 121.015 4 50 990 0 9 175 175 19.4151 120.477 3 48 990 19.2999 119.940 STS 50 989 19.5650 120.678 TC 45 19.5158 120.622 2 45 7 17
1980296N05165 1980 91 WP MM BETTY 1980-11-06 00:00:00 TS 19.8333 120.700 50 990 tokyo main 134 134 OOOO_____OO___ jtwc_wp WP251980 19.9000 120.800 45 0 19.9000 121.100 4 50 990 0 9 175 175 0 19.7000 120.700 3 48 990 19.7000 120.000 STS 50 990 19.9000 120.800 TC 45 19.9000 120.800 2 45 7 21
1980296N05165 1980 91 WP MM BETTY 1980-11-06 03:00:00 TS 20.1570 120.827 main 178 156 PPPP_____PP___ WP251980 20.2348 120.940 45 0 20.1123 121.098 4 50 987 0 9 187 162 19.9197 120.798 3 48 990 20.1572 120.160 STS 47 990 20.2348 120.940 TC 45 20.2833 121.027 2 45 8 27
1980296N05165 1980 91 WP MM BETTY 1980-11-06 06:00:00 TS 20.5115 121.073 50 985 tokyo main 157 123 OOOO_____OP___ jtwc_wp WP251980 20.6000 121.200 45 0 20.4000 121.200 4 50 985 0 2 200 150 0 20.2000 121.000 3 48 990 20.6000 120.500 TS 45 990 20.6000 121.200 TC 45 20.6692 121.337 2 45 10 40
1980296N05165 1980 91 WP MM BETTY 1980-11-06 09:00:00 TS 20.9372 121.518 main 127 118 PPPP_____PP___ WP251980 21.0351 121.647 45 0 20.8549 121.553 4 47 987 0 2 200 150 20.6702 121.482 3 43 991 20.9577 121.048 TS 45 990 21.0351 121.647 TC 45 21.0705 121.728 2 45 13 47
1980296N05165 1980 91 WP MM BETTY 1980-11-06 12:00:00 TS 21.4000 122.083 45 990 tokyo main 136 131 OOOO_____OO___ jtwc_wp WP251980 21.5000 122.200 45 0 21.4000 122.100 3 45 990 0 2 200 150 0 21.2000 122.100 2 38 992 21.3000 121.700 TS 45 991 21.5000 122.200 TC 45 21.5000 122.200 2 45 14 49
1980296N05165 1980 91 WP MM BETTY 1980-11-06 15:00:00 TS 21.8508 122.647 main 175 175 PPPP_____PP___ WP251980 21.9346 122.721 42 0 21.9502 122.770 3 45 991 0 2 200 175 21.6499 122.693 2 38 993 21.6697 122.293 TS 42 992 21.9346 122.721 TC 42 21.9657 122.683 2 43 14 50
1980296N05165 1980 91 WP MM BETTY 1980-11-06 18:00:00 TS 22.3266 123.258 45 992 tokyo main 214 209 OOOO_____OP___ jtwc_wp WP251980 22.4000 123.300 40 0 22.5000 123.500 3 45 992 0 9 200 200 0 22.1000 123.300 2 38 995 22.1000 122.900 TS 40 993 22.4000 123.300 TC 40 22.4599 123.251 2 42 15 49
1980296N05165 1980 91 WP MM BETTY 1980-11-06 21:00:00 TS 22.8421 123.878 main 258 256 PPPP_____PP___ WP251980 22.9495 123.948 40 0 22.9992 124.129 3 42 992 0 9 225 175 22.5615 123.842 2 38 995 22.6190 123.484 TS 40 993 22.9495 123.948 TC 40 22.9741 123.918 2 41 16 49
1980296N05165 1980 91 WP MM BETTY 1980-11-07 00:00:00 TS 23.3833 124.600 40 992 tokyo main 300 300 OOOO_____OO___ jtwc_wp WP251980 23.5000 124.700 40 0 23.5000 124.800 3 40 992 0 2 250 150 0 23.1000 124.500 2 38 995 23.2000 124.200 TS 40 994 23.5000 124.700 TC 40 23.5000 124.700 2 40 18 53
1980296N05165 1980 91 WP MM BETTY 1980-11-07 03:00:00 TS 23.9252 125.461 main 371 369 PPPP_____PP___ WP251980 23.9417 125.534 37 0 24.0641 125.575 3 37 993 0 2 275 225 23.8077 125.431 2 38 995 23.8070 125.153 TS 37 994 23.9417 125.534 TC 37 23.9889 125.536 2 38 20 58
1980296N05165 1980 91 WP MM BETTY 1980-11-07 06:00:00 TS 24.4649 126.466 35 994 tokyo main 457 457 OOOO_____OP___ jtwc_wp WP251980 24.4000 126.500 35 0 24.6000 126.500 3 35 994 0 9 300 300 0 24.5000 126.500 2 38 995 24.4000 126.300 TS 35 995 24.4000 126.500 TC 35 24.4892 126.493 2 37 22 61
1980296N05165 1980 91 WP MM BETTY 1980-11-07 09:00:00 TS 24.9750 127.558 main 563 563 PPPP_____PP___ WP251980 24.9690 127.576 35 0 24.9993 127.577 3 35 995 0 9 275 275 24.9705 127.485 2 38 995 24.9221 127.556 TS 32 995 24.9690 127.576 TC 35 25.0200 127.578 2 36 23 64
1980296N05165 1980 91 WP MM BETTY 1980-11-07 12:00:00 TS 25.4857 128.781 35 996 tokyo main 641 562 OOOO_____OO___ jtwc_wp WP251980 25.6000 128.800 35 0 25.4000 128.800 3 35 996 0 9 250 250 0 25.4000 128.600 2 38 995 25.4000 128.900 TD 30 996 25.6000 128.800 TC 35 25.6000 128.800 2 35 25 66
1980296N05165 1980 91 WP MM BETTY 1980-11-07 15:00:00 TS 26.0074 130.068 main 561 506 PPPP_____PP___ WP251980 26.2506 130.159 35 0 25.8925 129.989 3 997 0 9 25.9010 129.874 2 38 995 25.8703 130.206 TD 27 997 26.2506 130.159 TC 35 26.2374 130.158 2 35 27 67
1980296N05165 1980 91 WP MM BETTY 1980-11-07 18:00:00 TS 26.5429 131.543 998 tokyo main 508 489 OOOO_____OO___ jtwc_wp WP251980 26.9000 131.600 35 0 26.5000 131.500 2 998 0 0 0 26.5000 131.500 2 38 995 26.3000 131.600 TD 25 998 26.9000 131.600 TC 35 26.9000 131.600 2 35 33 69
1980296N05165 1980 91 WP MM BETTY 1980-11-07 21:00:00 TS 27.1882 133.553 main 508 508 _PPP__________ WP251980 -1 27.3362 133.645 2 1001 0 0 27.2982 133.662 2 33 997 26.6720 133.151 TD 25 999 TC 2 41 71
1980296N05165 1980 91 WP MM BETTY 1980-11-08 00:00:00 MX 27.8889 135.867 1004 tokyo main 583 583 _OOO__________ -1 28.0000 136.000 6 1004 0 0 0 28.0000 136.000 1 29 1000 27.0000 134.800 TD 25 1000 41 76
1980296N05165 1980 91 WP MM BETTY 1980-11-08 03:00:00 MX 28.2140 138.043 main 616 616 _PP___________ -1 28.1077 138.044 6 1005 0 0 28.3202 138.043 1 29 1000 TD 37 84
1980296N05165 1980 91 WP MM BETTY 1980-11-08 06:00:00 MX 28.2500 140.000 1006 tokyo main 695 701 _OO___________ -1 28.0000 140.000 6 1006 0 0 0 28.5000 140.000 1 29 1000 35 88
1980296N05165 1980 91 WP MM BETTY 1980-11-08 09:00:00 MX 28.3506 141.983 main 751 751 _PP___________ -1 27.9693 141.984 6 1009 0 0 28.7319 141.983 1 29 1000 35 86
1980296N05165 1980 91 WP MM BETTY 1980-11-08 12:00:00 MX 28.5000 144.000 1012 tokyo main 811 _OO___________ -1 28.0000 144.000 6 1012 0 0 0 29.0000 144.000 1 29 1000 36 85

Digital Typhoon Data and Search

About IBTrACS Database

This database is a web-friendly format of International Best Track Archive for Climate Stewardship (IBTrACS), a global best track data archive curated by NOAA dating back to 1842.

Updated: 2021-12-03